createdAt,value
2018-05-15T00:02:18.198Z,10.00
2018-05-15T00:04:50.638Z,11.53
2018-05-15T00:07:23.290Z,9.87
2018-05-15T00:09:55.723Z,11.33
2018-05-15T00:12:28.364Z,10.40
2018-05-15T00:15:00.730Z,11.20
2018-05-15T00:17:33.252Z,12.73
2018-05-15T00:20:05.871Z,11.77
2018-05-15T00:22:38.392Z,10.13
2018-05-15T00:25:10.909Z,11.97
2018-05-15T00:27:43.551Z,10.10
2018-05-15T00:30:15.995Z,9.40
2018-05-15T00:32:48.386Z,9.77
2018-05-15T00:35:20.766Z,9.83
2018-05-15T00:37:53.367Z,10.80
2018-05-15T00:40:25.691Z,12.17
2018-05-15T00:42:58.316Z,10.40
2018-05-15T00:45:30.802Z,11.37
2018-05-15T00:48:03.320Z,10.57
2018-05-15T00:50:35.750Z,10.13
2018-05-15T00:53:08.098Z,9.73
2018-05-15T00:55:44.476Z,10.87
2018-05-15T00:58:16.978Z,10.30
2018-05-15T01:00:49.562Z,10.03
2018-05-15T01:03:22.146Z,9.17
2018-05-15T01:05:54.715Z,9.63
2018-05-15T01:08:27.334Z,10.03
2018-05-15T01:10:59.646Z,9.50
2018-05-15T01:13:32.131Z,9.33
2018-05-15T01:16:04.590Z,9.63
2018-05-15T01:18:37.084Z,9.53
2018-05-15T01:21:09.619Z,9.10
2018-05-15T01:23:42.073Z,10.77
2018-05-15T01:26:14.580Z,11.57
2018-05-15T01:28:47.228Z,11.00
2018-05-15T01:31:19.689Z,10.30
2018-05-15T01:33:52.305Z,10.53
2018-05-15T01:36:24.827Z,10.33
2018-05-15T01:38:57.400Z,10.10
2018-05-15T01:41:29.974Z,10.30
2018-05-15T01:44:02.676Z,10.20
2018-05-15T01:46:35.129Z,10.07
2018-05-15T01:49:07.474Z,10.13
2018-05-15T01:51:40.036Z,9.50
2018-05-15T01:54:12.550Z,9.37
2018-05-15T01:56:45.002Z,10.33
2018-05-15T01:59:17.424Z,10.20
2018-05-15T02:01:49.795Z,9.40
2018-05-15T02:04:22.153Z,11.97
2018-05-15T02:06:54.395Z,11.27
2018-05-15T02:09:26.767Z,12.10
2018-05-15T02:11:59.027Z,11.10
2018-05-15T02:14:31.436Z,12.10
2018-05-15T02:17:03.876Z,11.93
2018-05-15T02:19:36.296Z,11.80
2018-05-15T02:22:08.877Z,10.23
2018-05-15T02:24:41.168Z,11.50
2018-05-15T02:27:13.636Z,9.73
2018-05-15T02:29:45.995Z,11.00
2018-05-15T02:32:18.436Z,11.67
2018-05-15T02:34:50.803Z,13.10
2018-05-15T02:37:23.270Z,14.50
2018-05-15T02:39:55.743Z,14.57
2018-05-15T02:42:28.040Z,16.13
2018-05-15T02:45:00.560Z,18.83
2018-05-15T02:47:33.045Z,17.13
2018-05-15T02:50:05.417Z,15.97
2018-05-15T02:52:37.867Z,15.63
2018-05-15T02:55:10.210Z,14.77
2018-05-15T02:57:42.431Z,14.27
2018-05-15T03:00:14.870Z,13.40
2018-05-15T03:02:47.292Z,13.93
2018-05-15T03:05:19.614Z,13.00
2018-05-15T03:07:51.930Z,13.47
2018-05-15T03:10:24.342Z,12.50
2018-05-15T03:12:56.642Z,13.23
2018-05-15T03:15:29.196Z,13.97
2018-05-15T03:18:01.672Z,15.57
2018-05-15T03:20:34.045Z,17.90
2018-05-15T03:23:06.443Z,15.80
2018-05-15T03:25:38.989Z,14.90
2018-05-15T03:28:11.253Z,14.87
2018-05-15T03:30:43.716Z,14.03
2018-05-15T03:33:15.977Z,14.70
2018-05-15T03:35:48.456Z,13.13
2018-05-15T03:38:21.546Z,14.07
2018-05-15T03:40:54.510Z,13.73
2018-05-15T03:43:27.107Z,12.80
2018-05-15T03:45:59.674Z,15.13
2018-05-15T03:48:32.237Z,14.30
2018-05-15T03:51:04.964Z,13.40
2018-05-15T03:53:37.313Z,13.40
2018-05-15T03:56:09.811Z,14.20
2018-05-15T03:58:42.173Z,20.73
2018-05-15T04:01:26.538Z,14.93
2018-05-15T04:04:10.940Z,13.03
2018-05-15T04:06:55.367Z,12.57
2018-05-15T04:09:27.809Z,12.97
2018-05-15T04:12:00.068Z,13.47
2018-05-15T04:14:32.404Z,15.20
2018-05-15T04:17:04.858Z,12.37
2018-05-15T04:19:38.228Z,13.97
2018-05-15T04:22:10.565Z,12.73
2018-05-15T04:24:43.102Z,13.10
2018-05-15T04:27:15.553Z,13.53
2018-05-15T04:29:47.762Z,12.40
2018-05-15T04:32:20.140Z,12.97
2018-05-15T04:34:52.674Z,13.10
2018-05-15T04:37:24.931Z,13.77
2018-05-15T04:39:57.220Z,12.77
2018-05-15T04:42:29.675Z,13.13
2018-05-15T04:45:02.075Z,12.73
2018-05-15T04:47:34.648Z,12.00
2018-05-15T04:50:07.127Z,13.07
2018-05-15T04:52:39.634Z,12.27
2018-05-15T04:55:12.067Z,13.27
2018-05-15T04:57:44.614Z,12.20
2018-05-15T05:00:17.212Z,12.37
2018-05-15T05:02:49.659Z,12.63
2018-05-15T05:05:22.053Z,13.73
2018-05-15T05:07:54.424Z,14.17
2018-05-15T05:10:26.748Z,13.63
2018-05-15T05:12:59.262Z,15.27
2018-05-15T05:15:31.560Z,15.23
2018-05-15T05:18:04.142Z,16.20
2018-05-15T05:20:36.536Z,15.23
2018-05-15T05:23:08.820Z,15.87
2018-05-15T05:25:41.679Z,15.17
2018-05-15T05:28:14.211Z,15.57
2018-05-15T05:30:46.623Z,16.07
2018-05-15T05:33:19.168Z,16.30
2018-05-15T05:35:51.566Z,14.43
2018-05-15T05:38:23.879Z,15.30
2018-05-15T05:40:50.132Z,14.90
2018-05-15T05:43:16.366Z,14.90
2018-05-15T05:45:42.646Z,14.33
2018-05-15T05:48:08.889Z,13.73
2018-05-15T05:50:35.113Z,14.87
2018-05-15T05:53:01.459Z,14.17
2018-05-15T05:55:27.696Z,11.80
2018-05-15T05:57:53.915Z,10.47
2018-05-15T06:00:20.219Z,10.33
2018-05-15T06:02:46.443Z,9.97
2018-05-15T06:05:12.686Z,9.70
2018-05-15T06:07:38.931Z,8.70
2018-05-15T06:10:05.167Z,9.13
2018-05-15T06:12:31.403Z,10.40
2018-05-15T06:14:57.735Z,9.93
2018-05-15T06:17:23.955Z,9.73
2018-05-15T06:19:50.187Z,8.57
2018-05-15T06:22:16.424Z,7.93
2018-05-15T06:24:42.629Z,9.23
2018-05-15T06:27:08.984Z,8.00
2018-05-15T06:29:35.211Z,8.47
2018-05-15T06:32:01.433Z,7.70
2018-05-15T06:34:27.653Z,8.03
2018-05-15T06:36:54.269Z,8.27
2018-05-15T06:39:20.485Z,7.20
2018-05-15T06:41:46.706Z,6.63
2018-05-15T06:44:12.982Z,7.43
2018-05-15T06:46:39.200Z,6.90
2018-05-15T06:49:05.451Z,7.17
2018-05-15T06:51:31.713Z,6.90
2018-05-15T06:53:57.920Z,6.20
2018-05-15T06:56:29.626Z,7.00
2018-05-15T06:58:56.009Z,7.13
2018-05-15T07:01:22.266Z,7.13
2018-05-15T07:03:48.476Z,6.73
2018-05-15T07:06:14.777Z,6.30
2018-05-15T07:08:41.144Z,7.00
2018-05-15T07:11:07.377Z,6.63
2018-05-15T07:13:33.656Z,6.53
2018-05-15T07:15:59.866Z,7.17
2018-05-15T07:18:26.129Z,7.63
2018-05-15T07:20:52.417Z,7.43
2018-05-15T07:23:18.675Z,6.70
2018-05-15T07:25:45.070Z,6.80
2018-05-15T07:28:11.405Z,7.03
2018-05-15T07:30:37.673Z,6.53
2018-05-15T07:33:03.960Z,6.10
2018-05-15T07:35:30.212Z,6.70
2018-05-15T07:37:56.446Z,6.57
2018-05-15T07:40:22.703Z,6.63
2018-05-15T07:42:49.046Z,6.60
2018-05-15T07:45:15.295Z,6.40
2018-05-15T07:47:41.503Z,5.80
2018-05-15T07:50:07.776Z,5.10
2018-05-15T07:52:34.010Z,5.43
2018-05-15T07:55:00.243Z,5.57
2018-05-15T07:57:26.524Z,4.30
2018-05-15T07:59:52.749Z,4.80
2018-05-15T08:02:18.973Z,5.23
2018-05-15T08:04:45.279Z,4.80
2018-05-15T08:07:11.508Z,5.10
2018-05-15T08:09:37.761Z,4.70
2018-05-15T08:12:04.084Z,4.57
2018-05-15T08:14:30.308Z,5.50
2018-05-15T08:16:56.543Z,4.63
2018-05-15T08:19:22.842Z,4.77
2018-05-15T08:21:49.064Z,4.97
2018-05-15T08:24:15.282Z,5.70
2018-05-15T08:26:41.594Z,5.00
2018-05-15T08:29:07.957Z,4.90
2018-05-15T08:31:34.197Z,4.43
2018-05-15T08:34:00.451Z,4.63
2018-05-15T08:36:26.681Z,4.37
2018-05-15T08:38:52.912Z,4.70
2018-05-15T08:41:19.176Z,4.90
2018-05-15T08:43:45.418Z,5.20
2018-05-15T08:46:11.654Z,4.87
2018-05-15T08:48:38.045Z,4.57
2018-05-15T08:51:04.290Z,4.50
2018-05-15T08:53:30.524Z,4.70
2018-05-15T08:55:56.771Z,4.70
2018-05-15T08:58:22.994Z,4.60
2018-05-15T09:00:49.212Z,5.10
2018-05-15T09:03:15.465Z,5.50
2018-05-15T09:05:41.675Z,5.67
2018-05-15T09:08:07.946Z,5.13
2018-05-15T09:10:34.259Z,5.90
2018-05-15T09:13:00.494Z,4.53
2018-05-15T09:15:26.733Z,6.27
2018-05-15T09:17:52.986Z,7.60
2018-05-15T09:20:19.225Z,6.20
2018-05-15T09:22:45.519Z,5.83
2018-05-15T09:25:11.804Z,5.10
2018-05-15T09:27:38.043Z,4.77
2018-05-15T09:30:04.439Z,4.97
2018-05-15T09:32:30.772Z,5.47
2018-05-15T09:34:57.015Z,5.23
2018-05-15T09:37:23.256Z,4.37
2018-05-15T09:39:49.544Z,5.63
2018-05-15T09:42:15.811Z,5.07
2018-05-15T09:44:42.026Z,4.63
2018-05-15T09:47:08.308Z,3.97
2018-05-15T09:49:34.519Z,4.00
2018-05-15T09:52:00.741Z,3.60
2018-05-15T09:54:27.063Z,3.90
2018-05-15T09:56:53.311Z,3.37
2018-05-15T09:59:19.558Z,3.83
2018-05-15T10:01:45.820Z,3.70
2018-05-15T10:04:12.079Z,3.93
2018-05-15T10:06:38.303Z,4.10
2018-05-15T10:09:04.613Z,5.00
2018-05-15T10:11:31.120Z,4.17
2018-05-15T10:13:57.336Z,5.30
2018-05-15T10:16:23.636Z,5.17
2018-05-15T10:18:49.872Z,4.30
2018-05-15T10:21:16.094Z,4.20
2018-05-15T10:23:42.370Z,4.20
2018-05-15T10:26:08.599Z,4.10
2018-05-15T10:28:34.833Z,4.37
2018-05-15T10:31:01.175Z,3.83
2018-05-15T10:33:27.440Z,4.37
2018-05-15T10:35:53.646Z,5.37
2018-05-15T10:38:19.945Z,4.27
2018-05-15T10:40:46.191Z,5.73
2018-05-15T10:43:12.432Z,4.60
2018-05-15T10:45:38.688Z,4.70
2018-05-15T10:48:04.904Z,4.20
2018-05-15T10:50:31.128Z,7.10
2018-05-15T10:52:57.413Z,6.93
2018-05-15T10:55:23.644Z,4.50
2018-05-15T10:57:49.880Z,4.70
2018-05-15T11:00:16.249Z,4.70
2018-05-15T11:02:42.443Z,4.33
2018-05-15T11:05:08.706Z,4.20
2018-05-15T11:07:34.975Z,4.70
2018-05-15T11:10:01.229Z,4.43
2018-05-15T11:12:27.456Z,4.17
2018-05-15T11:14:53.732Z,4.67
2018-05-15T11:17:19.935Z,4.90
2018-05-15T11:19:58.431Z,5.03
2018-05-15T11:22:36.673Z,4.80
2018-05-15T11:25:03.004Z,4.47
2018-05-15T11:27:29.335Z,3.53
2018-05-15T11:29:55.564Z,4.30
2018-05-15T11:32:21.940Z,3.53
2018-05-15T11:34:48.196Z,4.50
2018-05-15T11:37:14.436Z,4.67
2018-05-15T11:39:40.836Z,3.97
2018-05-15T11:42:07.113Z,4.70
2018-05-15T11:44:33.316Z,19.27
2018-05-15T11:46:59.565Z,4.83
2018-05-15T11:49:26.702Z,4.87
2018-05-15T11:51:52.895Z,4.87
2018-05-15T11:54:18.361Z,4.63
2018-05-15T11:56:44.613Z,4.20
2018-05-15T11:59:10.853Z,4.20
2018-05-15T12:01:37.196Z,4.83
2018-05-15T12:04:03.534Z,5.50
2018-05-15T12:06:29.764Z,5.00
2018-05-15T12:08:56.034Z,5.00
2018-05-15T12:11:22.244Z,4.47
2018-05-15T12:13:48.467Z,4.87
2018-05-15T12:16:14.761Z,4.57
2018-05-15T12:18:40.984Z,5.20
2018-05-15T12:21:07.244Z,4.60
2018-05-15T12:23:33.563Z,5.13
2018-05-15T12:25:59.798Z,4.10
2018-05-15T12:28:26.048Z,4.63
2018-05-15T12:30:52.331Z,5.00
2018-05-15T12:33:18.855Z,4.00
2018-05-15T12:35:45.091Z,4.70
2018-05-15T12:38:11.379Z,3.93
2018-05-15T12:40:37.625Z,4.40
2018-05-15T12:43:03.855Z,3.90
2018-05-15T12:45:30.196Z,4.27
2018-05-15T12:47:56.433Z,4.30
2018-05-15T12:50:22.663Z,4.50
2018-05-15T12:52:48.969Z,4.90
2018-05-15T12:55:15.195Z,4.87
2018-05-15T12:57:41.434Z,4.17
2018-05-15T13:00:07.710Z,4.13
2018-05-15T13:02:33.932Z,4.20
2018-05-15T13:05:00.163Z,4.63
2018-05-15T13:07:26.578Z,4.13
2018-05-15T13:09:58.660Z,4.23
2018-05-15T13:12:24.920Z,3.80
2018-05-15T13:14:51.219Z,3.80
2018-05-15T13:17:17.460Z,3.80
2018-05-15T13:19:43.707Z,3.57
2018-05-15T13:22:10.034Z,4.63
2018-05-15T13:24:36.358Z,4.03
2018-05-15T13:27:02.552Z,3.87
2018-05-15T13:29:32.443Z,3.97
2018-05-15T13:31:58.690Z,4.60
2018-05-15T13:34:25.111Z,4.53
2018-05-15T13:36:51.323Z,4.40
2018-05-15T13:39:17.571Z,4.93
2018-05-15T13:41:43.815Z,4.87
2018-05-15T13:44:10.101Z,4.40
2018-05-15T13:46:36.379Z,3.77
2018-05-15T13:49:02.650Z,4.03
2018-05-15T13:51:29.009Z,3.93
2018-05-15T13:53:55.243Z,3.83
2018-05-15T13:56:21.504Z,4.27
2018-05-15T13:58:47.786Z,3.70
2018-05-15T14:01:14.036Z,4.37
2018-05-15T14:03:40.280Z,3.80
2018-05-15T14:06:06.665Z,4.70
2018-05-15T14:08:32.915Z,4.10
2018-05-15T14:10:59.169Z,4.57
2018-05-15T14:13:25.574Z,4.70
2018-05-15T14:15:51.819Z,4.67
2018-05-15T14:18:18.120Z,4.63
2018-05-15T14:20:44.406Z,4.77
2018-05-15T14:23:10.672Z,4.83
2018-05-15T14:25:36.946Z,6.43
2018-05-15T14:28:03.248Z,4.57
2018-05-15T14:30:29.508Z,4.80
2018-05-15T14:32:55.751Z,4.93
2018-05-15T14:35:23.067Z,5.03
2018-05-15T14:37:49.298Z,5.33
2018-05-15T14:40:15.532Z,4.80
2018-05-15T14:42:53.790Z,4.93
2018-05-15T14:45:20.049Z,6.00
2018-05-15T14:47:47.360Z,5.57
2018-05-15T14:50:13.736Z,5.20
2018-05-15T14:52:39.982Z,5.37
2018-05-15T14:55:06.228Z,4.47
2018-05-15T14:57:32.659Z,5.13
2018-05-15T14:59:58.930Z,5.03
2018-05-15T15:02:25.179Z,6.07
2018-05-15T15:04:51.454Z,4.47
2018-05-15T15:07:17.728Z,4.27
2018-05-15T15:09:43.977Z,4.37
2018-05-15T15:12:10.323Z,5.73
2018-05-15T15:14:36.578Z,4.23
2018-05-15T15:17:02.839Z,4.80
2018-05-15T15:19:29.218Z,4.83
2018-05-15T15:21:55.475Z,4.30
2018-05-15T15:24:21.760Z,5.00
2018-05-15T15:26:48.080Z,4.43
2018-05-15T15:29:14.418Z,4.30
2018-05-15T15:31:40.682Z,4.77
2018-05-15T15:34:06.997Z,5.13
2018-05-15T15:36:33.362Z,5.03
2018-05-15T15:38:59.624Z,4.50
2018-05-15T15:41:25.989Z,4.97
2018-05-15T15:43:52.271Z,4.13
2018-05-15T15:46:18.520Z,3.90
2018-05-15T15:48:44.804Z,4.57
2018-05-15T15:51:11.069Z,4.17
2018-05-15T15:53:37.344Z,4.53
2018-05-15T15:56:03.687Z,4.47
2018-05-15T15:58:29.931Z,4.03
2018-05-15T16:00:56.201Z,4.20
2018-05-15T16:03:22.554Z,5.00
2018-05-15T16:05:48.813Z,4.50
2018-05-15T16:08:15.078Z,4.73
2018-05-15T16:10:41.375Z,6.37
2018-05-15T16:13:07.626Z,6.73
2018-05-15T16:15:33.915Z,4.60
2018-05-15T16:18:00.192Z,5.33
2018-05-15T16:20:26.432Z,4.77
2018-05-15T16:22:52.730Z,5.00
2018-05-15T16:25:19.106Z,5.27
2018-05-15T16:27:45.343Z,4.73
2018-05-15T16:30:11.601Z,5.30
2018-05-15T16:32:37.896Z,5.70
2018-05-15T16:35:04.155Z,6.10
2018-05-15T16:37:30.554Z,4.60
2018-05-15T16:39:56.825Z,4.63
2018-05-15T16:42:23.101Z,5.17
2018-05-15T16:44:49.354Z,4.27
2018-05-15T16:47:15.702Z,4.57
2018-05-15T16:49:41.958Z,4.10
2018-05-15T16:52:08.230Z,5.33
2018-05-15T16:54:34.539Z,4.23
2018-05-15T16:57:00.779Z,4.33
2018-05-15T16:59:27.037Z,4.40
2018-05-15T17:01:53.322Z,5.33
2018-05-15T17:04:19.621Z,4.63
2018-05-15T17:06:45.873Z,4.97
2018-05-15T17:09:12.234Z,25.87
2018-05-15T17:11:38.736Z,6.17
2018-05-15T17:14:08.760Z,5.00
2018-05-15T17:16:35.129Z,5.50
2018-05-15T17:19:01.375Z,4.37
2018-05-15T17:21:27.632Z,4.97
2018-05-15T17:23:53.923Z,5.50
2018-05-15T17:26:20.219Z,5.97
2018-05-15T17:28:46.468Z,5.93
2018-05-15T17:31:17.128Z,16.20
2018-05-15T17:33:43.358Z,9.43
2018-05-15T17:36:09.599Z,6.00
2018-05-15T17:38:41.217Z,4.70
2018-05-15T17:41:07.949Z,5.63
2018-05-15T17:43:34.227Z,6.13
2018-05-15T17:48:32.329Z,6.30
2018-05-15T17:50:58.585Z,6.70
2018-05-15T17:53:24.943Z,6.97
2018-05-15T17:55:51.183Z,7.30
2018-05-15T17:58:17.428Z,7.57
2018-05-15T18:00:43.729Z,8.20
2018-05-15T18:03:09.976Z,8.40
2018-05-15T18:05:36.253Z,6.43
2018-05-15T18:08:02.594Z,13.13
2018-05-15T18:10:28.892Z,8.23
2018-05-15T18:12:55.436Z,6.30
2018-05-15T18:15:21.819Z,6.90
2018-05-15T18:17:48.229Z,8.43
2018-05-15T18:20:14.503Z,7.10
2018-05-15T18:22:41.412Z,9.60
2018-05-15T18:25:07.746Z,8.33
2018-05-15T18:27:34.121Z,8.47
2018-05-15T18:30:00.423Z,7.77
2018-05-15T18:32:26.677Z,7.57
2018-05-15T18:34:53.447Z,7.97
2018-05-15T18:37:19.855Z,8.53
2018-05-15T18:39:46.328Z,7.30
2018-05-15T18:42:12.579Z,6.97
2018-05-15T18:44:39.384Z,8.10
2018-05-15T18:47:05.628Z,6.83
2018-05-15T18:49:31.894Z,8.13
2018-05-15T18:51:58.182Z,9.27
2018-05-15T18:54:24.428Z,9.50
2018-05-15T18:56:50.692Z,8.17
2018-05-15T18:59:18.438Z,11.43
2018-05-15T19:01:45.342Z,8.90
2018-05-15T19:04:17.844Z,8.27
2018-05-15T19:06:50.274Z,9.20
2018-05-15T19:09:22.694Z,8.80
2018-05-15T19:11:55.063Z,8.73
2018-05-15T19:14:27.814Z,7.87
2018-05-15T19:17:03.489Z,10.13
2018-05-15T19:19:36.055Z,7.30
2018-05-15T19:22:08.447Z,7.10
2018-05-15T19:24:41.525Z,7.13
2018-05-15T19:27:14.044Z,6.17
2018-05-15T19:29:47.639Z,8.40
2018-05-15T19:32:20.091Z,6.37
2018-05-15T19:34:55.394Z,7.13
2018-05-15T19:37:27.954Z,13.93
2018-05-15T19:40:00.840Z,19.93
2018-05-15T19:42:33.228Z,11.37
2018-05-15T19:45:05.715Z,7.13
2018-05-15T19:47:37.979Z,5.80
2018-05-15T19:50:10.485Z,6.40
2018-05-15T19:52:42.995Z,6.97
2018-05-15T19:55:15.348Z,5.40
2018-05-15T19:57:48.372Z,5.93
2018-05-15T20:00:21.164Z,6.30
2018-05-15T20:02:53.628Z,5.73
2018-05-15T20:05:26.037Z,5.77
2018-05-15T20:07:58.447Z,5.23
2018-05-15T20:10:30.979Z,5.57
2018-05-15T20:13:03.503Z,5.53
2018-05-15T20:15:36.072Z,5.67
2018-05-15T20:18:08.487Z,5.73
2018-05-15T20:20:41.036Z,5.97
2018-05-15T20:23:13.627Z,5.43
2018-05-15T20:25:46.046Z,5.53
2018-05-15T20:28:18.512Z,5.07
2018-05-15T20:30:51.910Z,5.03
2018-05-15T20:33:24.295Z,5.40
2018-05-15T20:35:56.715Z,5.57
2018-05-15T20:38:29.187Z,5.00
2018-05-15T20:41:01.758Z,5.10
2018-05-15T20:43:34.069Z,5.77
2018-05-15T20:46:06.721Z,6.07
2018-05-15T20:48:39.157Z,5.97
2018-05-15T20:51:11.548Z,4.67
2018-05-15T20:53:44.045Z,5.33
2018-05-15T20:56:16.571Z,4.80
2018-05-15T20:58:49.027Z,5.80
2018-05-15T21:01:21.687Z,4.37
2018-05-15T21:03:54.091Z,4.83
2018-05-15T21:06:26.656Z,4.60
2018-05-15T21:08:59.081Z,4.80
2018-05-15T21:11:31.455Z,4.23
2018-05-15T21:14:03.786Z,4.50
2018-05-15T21:16:36.278Z,4.20
2018-05-15T21:19:08.712Z,5.37
2018-05-15T21:21:41.261Z,3.93
2018-05-15T21:24:13.668Z,4.00
2018-05-15T21:26:46.057Z,5.10
2018-05-15T21:29:18.499Z,4.23
2018-05-15T21:31:50.895Z,4.20
2018-05-15T21:34:23.366Z,4.47
2018-05-15T21:36:55.925Z,4.17
2018-05-15T21:39:28.437Z,4.73
2018-05-15T21:42:07.675Z,4.90
2018-05-15T21:44:40.156Z,4.83
2018-05-15T21:47:12.903Z,5.30
2018-05-15T21:49:45.426Z,5.53
2018-05-15T21:52:17.755Z,5.20
2018-05-15T21:54:50.028Z,4.80
2018-05-15T21:57:22.509Z,5.03
2018-05-15T21:59:55.053Z,5.07
2018-05-15T22:02:27.657Z,5.43
2018-05-15T22:05:00.199Z,4.83
2018-05-15T22:07:32.772Z,4.80
2018-05-15T22:10:05.166Z,4.63
2018-05-15T22:12:49.468Z,4.73
2018-05-15T22:15:33.996Z,4.40
2018-05-15T22:18:18.469Z,5.10
2018-05-15T22:21:03.047Z,6.10
2018-05-15T22:23:35.252Z,6.27
2018-05-15T22:26:07.729Z,5.30
2018-05-15T22:28:40.075Z,5.70
2018-05-15T22:31:12.583Z,4.60
2018-05-15T22:33:45.063Z,4.90
2018-05-15T22:36:17.435Z,5.43
2018-05-15T22:38:50.144Z,7.27
2018-05-15T22:41:24.093Z,5.37
2018-05-15T22:43:57.210Z,5.50
2018-05-15T22:46:30.122Z,4.97
2018-05-15T22:49:02.701Z,5.30
2018-05-15T22:51:34.995Z,4.13
2018-05-15T22:54:07.333Z,4.17
2018-05-15T22:56:39.709Z,3.77
2018-05-15T22:59:12.044Z,3.47
2018-05-15T23:01:44.372Z,3.40
2018-05-15T23:04:17.092Z,3.77
2018-05-15T23:06:49.481Z,4.30
2018-05-15T23:09:21.802Z,4.03
2018-05-15T23:11:54.283Z,3.77
2018-05-15T23:14:26.762Z,3.90
2018-05-15T23:16:59.365Z,3.23
2018-05-15T23:19:31.858Z,4.47
2018-05-15T23:22:04.328Z,4.87
2018-05-15T23:24:36.652Z,4.30
2018-05-15T23:27:09.128Z,4.50
2018-05-15T23:29:41.485Z,4.00
2018-05-15T23:32:13.890Z,4.63
2018-05-15T23:34:46.515Z,4.50
2018-05-15T23:37:18.829Z,5.43
2018-05-15T23:39:51.156Z,4.87
2018-05-15T23:42:23.656Z,5.33
2018-05-15T23:44:56.138Z,5.47
2018-05-15T23:47:28.526Z,5.20
2018-05-15T23:50:01.083Z,4.93
2018-05-15T23:52:33.569Z,4.70
2018-05-15T23:55:06.197Z,4.67
2018-05-15T23:57:38.729Z,5.33
